createdAt,value
2019-04-14T00:01:45.759Z,94619.35
2019-04-14T00:04:12.085Z,94612.70
2019-04-14T00:06:39.619Z,94616.66
2019-04-14T00:09:05.311Z,94612.11
2019-04-14T00:11:32.225Z,94614.45
2019-04-14T00:13:58.749Z,94605.23
2019-04-14T00:16:24.897Z,94604.64
2019-04-14T00:18:51.249Z,94596.11
2019-04-14T00:21:17.274Z,94598.45
2019-04-14T00:23:43.451Z,94596.25
2019-04-14T00:26:09.429Z,94588.19
2019-04-14T00:28:35.776Z,94587.49
2019-04-14T00:31:02.328Z,94587.83
2019-04-14T00:33:28.378Z,94587.27
2019-04-14T00:35:55.837Z,94587.13
2019-04-14T00:38:21.798Z,94582.23
2019-04-14T00:40:47.628Z,94581.41
2019-04-14T00:43:13.737Z,94574.53
2019-04-14T00:45:45.288Z,94574.98
2019-04-14T00:48:11.179Z,94577.55
2019-04-14T00:50:34.079Z,94576.27
2019-04-14T00:52:59.139Z,94576.63
2019-04-14T00:55:27.077Z,94571.50
2019-04-14T00:57:52.980Z,94575.48
2019-04-14T01:00:19.268Z,94577.09
2019-04-14T01:02:45.069Z,94575.35
2019-04-14T01:05:11.247Z,94571.38
2019-04-14T01:07:37.613Z,94575.72
2019-04-14T01:10:04.022Z,94572.55
2019-04-14T01:12:30.245Z,94568.24
2019-04-14T01:14:56.599Z,94569.16
2019-04-14T01:17:22.964Z,94568.80
2019-04-14T01:19:50.545Z,94569.16
2019-04-14T01:22:16.283Z,94568.34
2019-04-14T01:24:42.486Z,94572.66
2019-04-14T01:27:08.434Z,94571.05
2019-04-14T01:29:34.781Z,94575.58
2019-04-14T01:32:02.249Z,94575.13
2019-04-14T01:34:28.152Z,94574.30
2019-04-14T01:36:54.080Z,94578.51
2019-04-14T01:39:20.323Z,94574.30
2019-04-14T01:41:47.751Z,94566.83
2019-04-14T01:44:13.519Z,94568.02
2019-04-14T01:46:39.332Z,94568.70
2019-04-14T01:49:05.620Z,94570.32
2019-04-14T01:51:33.064Z,94571.38
2019-04-14T01:53:59.400Z,94562.16
2019-04-14T01:56:25.197Z,94568.48
2019-04-14T01:58:51.245Z,94575.22
2019-04-14T02:01:17.276Z,94569.76
2019-04-14T02:03:43.673Z,94567.30
2019-04-14T02:06:10.020Z,94565.55
2019-04-14T02:08:37.204Z,94567.30
2019-04-14T02:11:02.989Z,94568.35
2019-04-14T02:13:29.020Z,94569.76
2019-04-14T02:15:55.408Z,94567.19
2019-04-14T02:18:24.958Z,94567.52
2019-04-14T02:20:51.161Z,94566.01
2019-04-14T02:23:17.097Z,94570.32
2019-04-14T02:25:42.960Z,94568.22
2019-04-14T02:28:09.175Z,94562.86
2019-04-14T02:30:41.633Z,94561.11
2019-04-14T02:33:33.694Z,94559.73
2019-04-14T02:36:12.005Z,94551.53
2019-04-14T02:38:40.856Z,94554.92
2019-04-14T02:40:58.030Z,94551.53
2019-04-14T02:43:22.097Z,94554.59
2019-04-14T02:50:33.551Z,94553.41
2019-04-14T02:53:00.489Z,94548.17
2019-04-14T02:55:23.389Z,94552.35
2019-04-14T02:57:52.804Z,94555.88
2019-04-14T03:01:14.722Z,94549.09
2019-04-14T03:02:44.615Z,94553.88
2019-04-14T03:05:09.622Z,94561.47
2019-04-14T03:07:46.138Z,94561.47
2019-04-14T03:14:55.563Z,94568.35
2019-04-14T03:17:42.589Z,94565.32
2019-04-14T03:20:03.015Z,94566.01
2019-04-14T03:22:25.953Z,94568.12
2019-04-14T03:24:35.759Z,94569.99
2019-04-14T03:27:10.171Z,94569.99
2019-04-14T03:32:15.064Z,94571.84
2019-04-14T03:39:26.843Z,94567.89
2019-04-14T03:41:45.609Z,94573.84
2019-04-14T03:44:11.816Z,94568.70
2019-04-14T03:46:41.656Z,94569.63
2019-04-14T03:49:10.064Z,94573.94
2019-04-14T03:51:42.807Z,94572.20
2019-04-14T03:53:51.971Z,94573.48
2019-04-14T03:56:02.321Z,94572.56
2019-04-14T03:58:24.623Z,94575.36
2019-04-14T04:00:51.467Z,94575.92
2019-04-14T04:03:17.384Z,94575.92
2019-04-14T04:05:43.475Z,94573.94
2019-04-14T04:08:09.512Z,94582.47
2019-04-14T04:10:35.879Z,94582.33
2019-04-14T04:13:02.207Z,94579.21
2019-04-14T04:15:28.587Z,94586.09
2019-04-14T04:17:55.903Z,94590.63
2019-04-14T04:20:21.747Z,94592.38
2019-04-14T04:22:47.707Z,94590.16
2019-04-14T04:25:13.979Z,94592.38
2019-04-14T04:27:40.362Z,94589.24
2019-04-14T04:30:07.984Z,94591.81
2019-04-14T04:32:34.072Z,94589.80
2019-04-14T04:34:59.936Z,94590.53
2019-04-14T04:37:25.835Z,94595.53
2019-04-14T04:39:52.238Z,94590.98
2019-04-14T04:42:19.746Z,94595.06
2019-04-14T04:44:46.108Z,94601.48
2019-04-14T04:47:12.240Z,94596.58
2019-04-14T04:49:38.317Z,94602.44
2019-04-14T04:52:04.184Z,94603.95
2019-04-14T04:54:30.538Z,94605.16
2019-04-14T04:56:58.009Z,94603.97
2019-04-14T04:59:23.464Z,94605.74
2019-04-14T05:01:49.571Z,94596.27
2019-04-14T05:04:15.920Z,94602.81
2019-04-14T05:06:42.298Z,94607.35
2019-04-14T05:09:09.849Z,94608.75
2019-04-14T05:11:36.111Z,94603.45
2019-04-14T05:14:02.236Z,94603.59
2019-04-14T05:16:28.158Z,94602.87
2019-04-14T05:18:55.136Z,94605.69
2019-04-14T05:21:21.327Z,94606.38
2019-04-14T05:23:47.410Z,94609.88
2019-04-14T05:26:13.413Z,94610.22
2019-04-14T05:28:39.708Z,94606.16
2019-04-14T05:31:05.861Z,94610.72
2019-04-14T05:33:32.254Z,94611.26
2019-04-14T05:35:59.816Z,94612.20
2019-04-14T05:38:26.185Z,94611.28
2019-04-14T05:40:51.799Z,94613.25
2019-04-14T05:43:30.223Z,94611.86
2019-04-14T05:45:44.051Z,94608.69
2019-04-14T05:48:10.795Z,94606.05
2019-04-14T05:50:37.643Z,94609.30
2019-04-14T05:53:04.255Z,94605.20
2019-04-14T05:55:30.498Z,94611.63
2019-04-14T05:57:56.712Z,94613.14
2019-04-14T06:00:23.396Z,94607.75
2019-04-14T06:02:48.545Z,94613.00
2019-04-14T06:05:14.809Z,94606.35
2019-04-14T06:07:41.181Z,94606.81
2019-04-14T06:10:07.517Z,94606.82
2019-04-14T06:12:34.026Z,94606.33
2019-04-14T06:15:00.384Z,94612.05
2019-04-14T06:17:26.712Z,94609.23
2019-04-14T06:19:53.077Z,94612.41
2019-04-14T06:22:19.443Z,94609.23
2019-04-14T06:24:45.808Z,94614.38
2019-04-14T06:27:12.135Z,94609.83
2019-04-14T06:29:38.471Z,94611.94
2019-04-14T06:32:04.861Z,94614.51
2019-04-14T06:34:31.189Z,94616.48
2019-04-14T06:36:57.538Z,94621.84
2019-04-14T06:39:23.871Z,94616.45
2019-04-14T06:41:50.253Z,94622.17
2019-04-14T06:44:16.584Z,94618.23
2019-04-14T06:46:43.017Z,94622.53
2019-04-14T06:49:09.386Z,94626.28
2019-04-14T06:51:35.784Z,94629.17
2019-04-14T06:54:02.149Z,94624.99
2019-04-14T06:56:28.486Z,94628.14
2019-04-14T06:58:54.896Z,94623.20
2019-04-14T07:01:21.185Z,94632.68
2019-04-14T07:03:47.507Z,94630.47
2019-04-14T07:06:13.919Z,94635.47
2019-04-14T07:08:40.260Z,94636.64
2019-04-14T07:11:06.589Z,94636.75
2019-04-14T07:13:33.022Z,94634.08
2019-04-14T07:15:59.304Z,94634.87
2019-04-14T07:18:25.638Z,94635.69
2019-04-14T07:20:51.965Z,94636.40
2019-04-14T07:23:18.324Z,94631.58
2019-04-14T07:25:44.726Z,94635.11
2019-04-14T07:28:11.138Z,94631.11
2019-04-14T07:30:37.666Z,94634.87
2019-04-14T07:33:04.042Z,94631.11
2019-04-14T07:35:30.380Z,94634.51
2019-04-14T07:37:56.749Z,94638.02
2019-04-14T07:40:23.073Z,94635.55
2019-04-14T07:42:49.514Z,94638.59
2019-04-14T07:45:15.813Z,94637.91
2019-04-14T07:47:42.148Z,94643.41
2019-04-14T07:50:14.619Z,94642.20
2019-04-14T07:52:34.874Z,94642.20
2019-04-14T07:55:01.237Z,94641.98
2019-04-14T07:57:27.561Z,94640.70
2019-04-14T07:59:53.895Z,94640.23
2019-04-14T08:02:20.277Z,94634.48
2019-04-14T08:04:46.645Z,94643.84
2019-04-14T08:07:13.019Z,94636.13
2019-04-14T08:09:39.316Z,94639.62
2019-04-14T08:12:05.658Z,94633.19
2019-04-14T08:14:31.985Z,94627.33
2019-04-14T08:16:58.355Z,94624.30
2019-04-14T08:19:24.674Z,94629.44
2019-04-14T08:21:51.005Z,94621.26
2019-04-14T08:24:17.351Z,94619.97
2019-04-14T08:26:43.822Z,94623.69
2019-04-14T08:29:10.273Z,94618.33
2019-04-14T08:31:36.582Z,94620.08
2019-04-14T08:34:02.935Z,94616.54
2019-04-14T08:36:29.313Z,94609.06
2019-04-14T08:38:55.691Z,94608.45
2019-04-14T08:41:22.155Z,94608.92
2019-04-14T08:43:48.442Z,94605.88
2019-04-14T08:46:14.789Z,94598.06
2019-04-14T08:48:41.169Z,94600.62
2019-04-14T08:51:07.507Z,94597.09
2019-04-14T08:53:33.892Z,94597.55
2019-04-14T08:56:00.221Z,94595.80
2019-04-14T08:58:26.565Z,94591.13
2019-04-14T09:00:52.955Z,94591.27
2019-04-14T09:03:19.309Z,94590.09
2019-04-14T09:05:45.690Z,94589.52
2019-04-14T09:08:12.042Z,94582.51
2019-04-14T09:10:38.384Z,94587.76
2019-04-14T09:13:04.794Z,94586.47
2019-04-14T09:15:31.274Z,94583.55
2019-04-14T09:17:57.759Z,94581.44
2019-04-14T09:20:24.148Z,94587.88
2019-04-14T09:22:50.574Z,94587.27
2019-04-14T09:25:17.007Z,94593.23
2019-04-14T09:27:43.326Z,94591.94
2019-04-14T09:30:09.627Z,94589.52
2019-04-14T09:32:35.986Z,94593.59
2019-04-14T09:35:02.323Z,94593.59
2019-04-14T09:37:28.684Z,94591.13
2019-04-14T09:39:55.078Z,94598.73
2019-04-14T09:42:21.476Z,94597.23
2019-04-14T09:44:47.861Z,94592.77
2019-04-14T09:47:14.242Z,94592.41
2019-04-14T09:49:40.587Z,94589.52
2019-04-14T09:52:06.940Z,94590.80
2019-04-14T09:54:33.332Z,94592.77
2019-04-14T09:56:59.624Z,94591.13
2019-04-14T09:59:26.017Z,94596.27
2019-04-14T10:01:52.348Z,94594.98
2019-04-14T10:04:18.718Z,94591.02
2019-04-14T10:06:45.049Z,94587.88
2019-04-14T10:09:11.421Z,94580.26
2019-04-14T10:11:47.861Z,94584.01
2019-04-14T10:14:04.303Z,94582.37
2019-04-14T10:16:30.633Z,94574.79
2019-04-14T10:18:56.964Z,94578.66
2019-04-14T10:21:23.293Z,94577.47
2019-04-14T10:23:49.632Z,94579.90
2019-04-14T10:26:16.022Z,94582.61
2019-04-14T10:28:42.346Z,94577.83
2019-04-14T10:31:08.742Z,94581.33
2019-04-14T10:33:35.130Z,94580.61
2019-04-14T10:36:02.780Z,94580.26
2019-04-14T10:38:27.846Z,94578.97
2019-04-14T10:40:54.178Z,94576.55
2019-04-14T10:43:22.507Z,94581.55
2019-04-14T10:45:46.952Z,94584.36
2019-04-14T10:48:13.249Z,94586.38
2019-04-14T10:50:39.589Z,94585.30
2019-04-14T10:53:05.955Z,94585.41
2019-04-14T10:55:32.389Z,94583.55
2019-04-14T10:57:58.899Z,94584.62
2019-04-14T11:00:25.221Z,94583.19
2019-04-14T11:02:51.582Z,94582.98
2019-04-14T11:05:17.918Z,94581.33
2019-04-14T11:07:44.322Z,94584.48
2019-04-14T11:10:10.649Z,94579.22
2019-04-14T11:12:36.993Z,94579.37
2019-04-14T11:15:03.340Z,94576.91
2019-04-14T11:17:29.754Z,94579.48
2019-04-14T11:19:56.032Z,94576.08
2019-04-14T11:22:22.365Z,94574.33
2019-04-14T11:24:48.729Z,94584.87
2019-04-14T11:27:15.068Z,94583.58
2019-04-14T11:29:41.407Z,94587.80
2019-04-14T11:32:07.779Z,94580.55
2019-04-14T11:34:34.132Z,94582.45
2019-04-14T11:37:00.465Z,94573.08
2019-04-14T11:39:26.822Z,94574.63
2019-04-14T11:41:53.229Z,94570.77
2019-04-14T11:44:19.559Z,94570.33
2019-04-14T11:46:45.938Z,94569.48
2019-04-14T11:49:12.271Z,94572.41
2019-04-14T11:51:38.667Z,94576.05
2019-04-14T11:54:04.962Z,94572.80
2019-04-14T11:56:31.312Z,94571.63
2019-04-14T11:58:59.651Z,94571.98
2019-04-14T12:01:23.988Z,94572.09
2019-04-14T12:03:50.386Z,94573.73
2019-04-14T12:06:16.759Z,94567.91
2019-04-14T12:08:45.521Z,94566.27
2019-04-14T12:11:09.504Z,94571.77
2019-04-14T12:13:37.000Z,94564.63
2019-04-14T12:16:02.176Z,94562.19
2019-04-14T12:18:28.486Z,94560.55
2019-04-14T12:20:54.822Z,94561.48
2019-04-14T12:23:21.157Z,94558.58
2019-04-14T12:25:47.512Z,94560.69
2019-04-14T12:28:13.919Z,94552.26
2019-04-14T12:30:40.280Z,94547.58
2019-04-14T12:33:06.619Z,94542.11
2019-04-14T12:35:33.160Z,94543.97
2019-04-14T12:37:59.463Z,94541.30
2019-04-14T12:40:25.802Z,94543.72
2019-04-14T12:42:52.174Z,94535.11
2019-04-14T12:45:18.512Z,94536.86
2019-04-14T12:47:44.975Z,94533.47
2019-04-14T12:50:11.295Z,94538.01
2019-04-14T12:52:37.637Z,94531.94
2019-04-14T12:55:04.026Z,94533.47
2019-04-14T12:57:30.379Z,94533.36
2019-04-14T12:59:56.785Z,94531.36
2019-04-14T13:02:23.091Z,94528.69
2019-04-14T13:04:49.463Z,94506.61
2019-04-14T13:07:15.793Z,94517.58
2019-04-14T13:09:42.163Z,94522.11
2019-04-14T13:12:10.245Z,94515.00
2019-04-14T13:14:34.862Z,94515.69
2019-04-14T13:17:01.194Z,94508.58
2019-04-14T13:19:27.521Z,94513.11
2019-04-14T13:21:53.884Z,94509.72
2019-04-14T13:24:20.260Z,94514.03
2019-04-14T13:26:46.607Z,94509.11
2019-04-14T13:29:12.950Z,94507.24
2019-04-14T13:31:39.453Z,94506.98
2019-04-14T13:34:05.785Z,94508.27
2019-04-14T13:36:32.133Z,94512.09
2019-04-14T13:38:58.498Z,94508.09
2019-04-14T13:41:24.831Z,94508.27
2019-04-14T13:43:51.168Z,94508.13
2019-04-14T13:46:17.498Z,94513.42
2019-04-14T13:48:43.926Z,94512.71
2019-04-14T13:51:10.380Z,94514.56
2019-04-14T13:53:36.792Z,94511.67
2019-04-14T13:56:03.066Z,94514.95
2019-04-14T13:58:29.412Z,94514.50
2019-04-14T14:00:55.828Z,94521.40
2019-04-14T14:03:22.245Z,94519.29
2019-04-14T14:05:48.589Z,94523.50
2019-04-14T14:08:14.957Z,94521.14
2019-04-14T14:10:41.283Z,94523.66
2019-04-14T14:13:08.764Z,94532.50
2019-04-14T14:15:35.146Z,94533.10
2019-04-14T14:18:01.498Z,94537.09
2019-04-14T14:20:27.837Z,94536.27
2019-04-14T14:22:59.581Z,94532.53
2019-04-14T14:25:20.490Z,94539.20
2019-04-14T14:27:46.877Z,94543.66
2019-04-14T14:30:13.188Z,94543.32
2019-04-14T14:32:39.503Z,94546.71
2019-04-14T14:35:05.834Z,94541.10
2019-04-14T14:37:32.175Z,94543.67
2019-04-14T14:39:58.512Z,94547.28
2019-04-14T14:42:24.913Z,94542.14
2019-04-14T14:44:51.269Z,94545.45
2019-04-14T14:47:17.597Z,94550.45
2019-04-14T14:49:43.926Z,94548.56
2019-04-14T14:52:10.261Z,94546.73
2019-04-14T14:54:36.625Z,94553.75
2019-04-14T14:57:02.955Z,94558.41
2019-04-14T14:59:29.285Z,94558.99
2019-04-14T15:01:55.609Z,94559.70
2019-04-14T15:04:21.986Z,94559.70
2019-04-14T15:06:48.348Z,94565.06
2019-04-14T15:09:14.709Z,94569.27
2019-04-14T15:11:41.040Z,94572.67
2019-04-14T15:14:07.379Z,94570.23
2019-04-14T15:16:33.845Z,94578.40
2019-04-14T15:19:00.138Z,94578.52
2019-04-14T15:21:26.411Z,94586.47
2019-04-14T15:23:52.744Z,94584.14
2019-04-14T15:26:19.073Z,94589.73
2019-04-14T15:28:45.481Z,94586.37
2019-04-14T15:31:11.869Z,94584.83
2019-04-14T15:33:38.287Z,94593.57
2019-04-14T15:36:04.563Z,94586.22
2019-04-14T15:38:30.952Z,94590.98
2019-04-14T15:40:57.293Z,94592.48
2019-04-14T15:43:23.654Z,94594.45
2019-04-14T15:45:50.034Z,94588.16
2019-04-14T15:48:16.416Z,94587.47
2019-04-14T15:50:42.749Z,94589.70
2019-04-14T15:53:09.098Z,94596.70
2019-04-14T15:55:35.457Z,94599.02
2019-04-14T15:58:01.805Z,94606.98
2019-04-14T16:00:28.153Z,94599.38
2019-04-14T16:02:54.500Z,94599.62
2019-04-14T16:05:20.942Z,94604.17
2019-04-14T16:07:47.234Z,94602.67
2019-04-14T16:10:13.725Z,94601.27
2019-04-14T16:12:40.021Z,94605.84
2019-04-14T16:15:06.351Z,94607.33
2019-04-14T16:17:32.672Z,94606.05
2019-04-14T16:19:59.107Z,94608.98
2019-04-14T16:22:25.488Z,94613.53
2019-04-14T16:24:51.790Z,94617.50
2019-04-14T16:27:18.209Z,94619.61
2019-04-14T16:29:44.541Z,94616.35
2019-04-14T16:32:10.898Z,94621.27
2019-04-14T16:34:37.240Z,94626.27
2019-04-14T16:37:03.642Z,94619.52
2019-04-14T16:39:30.006Z,94624.86
2019-04-14T16:41:56.426Z,94624.07
2019-04-14T16:44:22.763Z,94628.63
2019-04-14T16:46:49.112Z,94630.73
2019-04-14T16:49:15.475Z,94637.95
2019-04-14T16:51:41.809Z,94642.85
2019-04-14T16:54:08.155Z,94648.81
2019-04-14T16:56:34.499Z,94647.53
2019-04-14T16:59:00.816Z,94648.36
2019-04-14T17:01:27.227Z,94648.81
2019-04-14T17:03:53.508Z,94651.63
2019-04-14T17:06:19.852Z,94649.87
2019-04-14T17:08:46.175Z,94648.11
2019-04-14T17:11:12.618Z,94644.94
2019-04-14T17:13:39.008Z,94656.50
2019-04-14T17:16:05.338Z,94656.41
2019-04-14T17:18:31.722Z,94664.44
2019-04-14T17:20:57.998Z,94664.57
2019-04-14T17:23:24.329Z,94669.94
2019-04-14T17:25:50.653Z,94666.41
2019-04-14T17:28:17.033Z,94672.61
2019-04-14T17:30:43.361Z,94675.17
2019-04-14T17:33:09.738Z,94680.08
2019-04-14T17:35:36.067Z,94678.43
2019-04-14T17:38:02.416Z,94683.93
2019-04-14T17:40:28.748Z,94686.27
2019-04-14T17:42:55.076Z,94685.91
2019-04-14T17:45:21.432Z,94686.27
2019-04-14T17:47:47.795Z,94693.48
2019-04-14T17:50:14.162Z,94696.77
2019-04-14T17:52:40.494Z,94693.58
2019-04-14T17:55:06.891Z,94693.21
2019-04-14T17:57:33.223Z,94700.45
2019-04-14T17:59:59.599Z,94701.14
2019-04-14T18:02:25.938Z,94706.17
2019-04-14T18:04:52.269Z,94709.30
2019-04-14T18:07:18.693Z,94716.91
2019-04-14T18:09:45.012Z,94718.30
2019-04-14T18:12:11.352Z,94717.83
2019-04-14T18:14:37.713Z,94714.56
2019-04-14T18:17:04.015Z,94723.55
2019-04-14T18:19:30.352Z,94724.94
2019-04-14T18:21:56.696Z,94718.28
2019-04-14T18:24:23.029Z,94722.23
2019-04-14T18:26:49.375Z,94727.86
2019-04-14T18:29:15.725Z,94721.53
2019-04-14T18:31:43.314Z,94726.08
2019-04-14T18:34:12.293Z,94724.92
2019-04-14T18:36:35.990Z,94725.75
2019-04-14T18:39:02.324Z,94726.80
2019-04-14T18:41:28.658Z,94727.72
2019-04-14T18:43:55.060Z,94727.94
2019-04-14T18:46:21.391Z,94736.70
2019-04-14T18:48:47.787Z,94737.75
2019-04-14T18:51:14.324Z,94733.91
2019-04-14T18:53:41.033Z,94735.73
2019-04-14T18:56:07.353Z,94743.11
2019-04-14T18:58:33.723Z,94740.77
2019-04-14T19:01:00.048Z,94741.00
2019-04-14T19:03:26.366Z,94744.13
2019-04-14T19:05:52.703Z,94744.25
2019-04-14T19:08:19.059Z,94746.36
2019-04-14T19:10:45.378Z,94746.45
2019-04-14T19:13:11.729Z,94742.24
2019-04-14T19:15:38.094Z,94749.94
2019-04-14T19:18:04.417Z,94746.91
2019-04-14T19:20:30.779Z,94754.28
2019-04-14T19:22:57.086Z,94754.14
2019-04-14T19:25:23.415Z,94759.64
2019-04-14T19:27:49.757Z,94757.86
2019-04-14T19:30:16.089Z,94757.98
2019-04-14T19:32:42.463Z,94760.19
2019-04-14T19:35:08.835Z,94759.37
2019-04-14T19:37:35.172Z,94762.88
2019-04-14T19:40:01.524Z,94759.03
2019-04-14T19:42:27.889Z,94758.55
2019-04-14T19:44:54.243Z,94769.30
2019-04-14T19:47:20.582Z,94766.37
2019-04-14T19:49:46.994Z,94761.70
2019-04-14T19:52:13.249Z,94761.70
2019-04-14T19:54:39.622Z,94761.33
2019-04-14T19:57:05.950Z,94760.63
2019-04-14T19:59:32.300Z,94761.55
2019-04-14T20:01:58.635Z,94766.81
2019-04-14T20:04:24.956Z,94764.47
2019-04-14T20:06:51.342Z,94762.72
2019-04-14T20:09:17.664Z,94763.05
2019-04-14T20:11:44.056Z,94769.93
2019-04-14T20:14:10.347Z,94767.95
2019-04-14T20:16:36.726Z,94770.05
2019-04-14T20:19:10.242Z,94775.64
2019-04-14T20:21:29.387Z,94773.78
2019-04-14T20:23:55.880Z,94773.53
2019-04-14T20:26:22.189Z,94776.69
2019-04-14T20:28:48.532Z,94774.67
2019-04-14T20:31:14.864Z,94774.22
2019-04-14T20:33:41.180Z,94776.91
2019-04-14T20:36:07.527Z,94774.89
2019-04-14T20:38:33.877Z,94782.03
2019-04-14T20:41:00.231Z,94782.03
2019-04-14T20:43:26.560Z,94778.65
2019-04-14T20:45:52.893Z,94775.38
2019-04-14T20:48:19.226Z,94782.13
2019-04-14T20:50:45.621Z,94777.83
2019-04-14T20:53:11.921Z,94784.00
2019-04-14T20:55:46.665Z,94782.35
2019-04-14T20:58:04.599Z,94781.65
2019-04-14T21:00:30.962Z,94784.22
2019-04-14T21:02:57.330Z,94782.56
2019-04-14T21:05:23.683Z,94789.90
2019-04-14T21:07:49.964Z,94793.41
2019-04-14T21:10:16.309Z,94794.11
2019-04-14T21:12:42.616Z,94789.90
2019-04-14T21:15:08.958Z,94790.02
2019-04-14T21:17:35.321Z,94790.48
2019-04-14T21:20:01.667Z,94786.27
2019-04-14T21:22:27.993Z,94785.93
2019-04-14T21:24:54.327Z,94784.19
2019-04-14T21:27:20.693Z,94782.77
2019-04-14T21:29:47.009Z,94787.30
2019-04-14T21:32:13.344Z,94785.93
2019-04-14T21:34:43.415Z,94794.09
2019-04-14T21:37:09.716Z,94789.05
2019-04-14T21:39:36.055Z,94790.09
2019-04-14T21:42:02.407Z,94793.11
2019-04-14T21:44:28.752Z,94796.86
2019-04-14T21:46:55.164Z,94793.94
2019-04-14T21:49:21.422Z,94792.05
2019-04-14T21:51:47.751Z,94790.67
2019-04-14T21:54:14.145Z,94795.67
2019-04-14T21:56:40.422Z,94793.57
2019-04-14T21:59:06.738Z,94796.63
2019-04-14T22:01:33.086Z,94800.69
2019-04-14T22:03:59.510Z,94800.56
2019-04-14T22:06:25.789Z,94790.42
2019-04-14T22:08:52.113Z,94796.93
2019-04-14T22:11:18.445Z,94801.70
2019-04-14T22:13:44.826Z,94800.78
2019-04-14T22:16:11.158Z,94802.30
2019-04-14T22:18:37.486Z,94796.02
2019-04-14T22:21:03.866Z,94796.02
2019-04-14T22:23:30.150Z,94786.30
2019-04-14T22:25:56.492Z,94788.27
2019-04-14T22:28:22.877Z,94789.55
2019-04-14T22:30:49.216Z,94789.45
2019-04-14T22:33:15.543Z,94786.52
2019-04-14T22:35:41.868Z,94789.09
2019-04-14T22:38:08.248Z,94788.75
2019-04-14T22:40:34.638Z,94786.06
2019-04-14T22:43:00.994Z,94788.27
2019-04-14T22:45:27.325Z,94781.61
2019-04-14T22:47:53.733Z,94783.26
2019-04-14T22:50:20.127Z,94787.56
2019-04-14T22:52:46.444Z,94778.95
2019-04-14T22:55:12.849Z,94777.55
2019-04-14T22:57:39.157Z,94778.13
2019-04-14T23:00:05.540Z,94783.50
2019-04-14T23:02:31.883Z,94778.38
2019-04-14T23:04:58.337Z,94780.11
2019-04-14T23:07:24.605Z,94782.80
2019-04-14T23:09:51.031Z,94775.93
2019-04-14T23:12:17.297Z,94784.32
2019-04-14T23:14:43.677Z,94779.19
2019-04-14T23:17:10.007Z,94777.00
2019-04-14T23:19:36.357Z,94781.85
2019-04-14T23:22:02.743Z,94776.72
2019-04-14T23:24:29.082Z,94780.94
2019-04-14T23:26:55.465Z,94783.87
2019-04-14T23:29:21.816Z,94778.83
2019-04-14T23:31:48.162Z,94782.58
2019-04-14T23:34:14.548Z,94786.43
2019-04-14T23:36:40.937Z,94784.56
2019-04-14T23:39:07.221Z,94785.97
2019-04-14T23:41:33.540Z,94785.24
2019-04-14T23:43:59.875Z,94780.48
2019-04-14T23:46:26.277Z,94780.63
2019-04-14T23:48:52.614Z,94780.27
2019-04-14T23:51:18.947Z,94776.51
2019-04-14T23:53:45.266Z,94776.51
2019-04-14T23:56:11.651Z,94777.00
2019-04-14T23:58:38.012Z,94774.31
